Time;durP1;ratioP1;P1;durP2;ratioP2;P2;SDS_P1;SDS_P2;PMS_P1;PMS_P2;Temp;Humidity;BMP_temperature;BMP_pressure;BME280_temperature;BME280_humidity;BME280_pressure;Samples;Min_cycle;Max_cycle;Signal;HPM_P1;HPM_P2
2022/06/27 00:00:08;;;;;;;4.60;3.00;;;;;;;20.96;82.06;97905.00;5092130;28;20446;-69
2022/06/27 00:02:36;;;;;;;7.90;2.88;;;;;;;20.94;82.36;97907.34;5093866;28;20053;-70
2022/06/27 00:05:02;;;;;;;4.07;2.80;;;;;;;20.93;82.78;97905.72;5093903;28;20031;-70
2022/06/27 00:07:27;;;;;;;6.60;2.90;;;;;;;20.91;83.24;97904.47;5093946;28;20024;-70
2022/06/27 00:09:52;;;;;;;4.75;3.03;;;;;;;20.78;84.16;97895.47;5093820;28;20032;-70
2022/06/27 00:12:18;;;;;;;8.75;3.17;;;;;;;20.78;84.07;97899.06;5093807;28;20084;-70
2022/06/27 00:14:43;;;;;;;4.18;3.17;;;;;;;20.89;83.53;97906.84;5093671;28;20477;-70
2022/06/27 00:17:09;;;;;;;5.95;2.67;;;;;;;20.88;83.96;97908.81;5093958;28;20173;-70
2022/06/27 00:19:34;;;;;;;5.97;3.50;;;;;;;20.88;83.80;97894.91;5093638;28;20027;-70
2022/06/27 00:22:00;;;;;;;5.78;3.60;;;;;;;20.89;84.24;97902.09;5093575;28;20437;-70
2022/06/27 00:24:25;;;;;;;3.42;2.83;;;;;;;20.86;84.42;97893.66;5093422;28;20024;-70
2022/06/27 00:26:50;;;;;;;7.60;3.65;;;;;;;20.85;84.69;97892.84;5093565;28;20024;-69
2022/06/27 00:29:16;;;;;;;6.65;3.78;;;;;;;20.92;83.98;97892.19;5093334;28;20027;-70
2022/06/27 00:31:41;;;;;;;6.93;3.42;;;;;;;20.88;84.01;97896.88;5093955;28;20024;-69
2022/06/27 00:34:07;;;;;;;6.22;3.30;;;;;;;20.94;83.87;97901.78;5094249;28;20035;-69
2022/06/27 00:36:32;;;;;;;3.90;2.70;;;;;;;20.87;84.27;97900.81;5096048;28;20043;-70
2022/06/27 00:38:58;;;;;;;5.88;3.90;;;;;;;20.80;84.53;97902.25;5095654;28;20048;-70
2022/06/27 00:41:23;;;;;;;6.30;3.00;;;;;;;20.69;85.67;97901.22;5095135;28;20390;-69
2022/06/27 00:43:48;;;;;;;7.85;2.95;;;;;;;20.73;85.14;97898.53;5093181;28;20046;-70
2022/06/27 00:46:14;;;;;;;5.70;3.25;;;;;;;20.69;85.15;97898.44;5093448;28;20110;-71
2022/06/27 00:48:40;;;;;;;6.47;2.83;;;;;;;20.57;86.12;97886.66;5093567;28;20032;-69
2022/06/27 00:51:05;;;;;;;6.57;3.05;;;;;;;20.63;86.38;97896.31;5093176;28;20473;-69
2022/06/27 00:53:34;;;;;;;7.60;3.30;;;;;;;20.66;85.86;97890.03;5094294;28;20382;-69
2022/06/27 00:56:00;;;;;;;7.55;3.25;;;;;;;20.72;86.05;97899.69;5093402;28;20038;-70
2022/06/27 00:58:26;;;;;;;5.03;3.03;;;;;;;20.83;85.04;97903.53;5093118;28;20065;-69
2022/06/27 01:00:51;;;;;;;8.75;3.17;;;;;;;20.87;84.95;97901.63;5093246;28;20036;-69
2022/06/27 01:03:18;;;;;;;5.75;3.42;;;;;;;20.95;84.39;97908.97;5093277;28;20063;-70
2022/06/27 01:05:51;;;;;;;4.43;3.25;;;;;;;20.88;84.54;97906.03;5093172;28;20035;-70
2022/06/27 01:08:20;;;;;;;4.60;3.30;;;;;;;20.90;84.15;97908.44;5093077;28;20485;-70
2022/06/27 01:10:47;;;;;;;8.70;3.67;;;;;;;20.72;87.02;97899.69;5092434;28;20024;-70
2022/06/27 01:13:13;;;;;;;7.57;3.67;;;;;;;20.70;87.40;97896.47;5092698;28;20082;-70
2022/06/27 01:15:39;;;;;;;5.25;3.60;;;;;;;20.75;87.37;97893.41;5092648;28;20064;-70
2022/06/27 01:18:05;;;;;;;7.68;3.47;;;;;;;20.67;87.79;97889.69;5092430;28;20099;-69
2022/06/27 01:20:30;;;;;;;8.95;4.00;;;;;;;20.68;87.96;97885.72;5091973;28;20454;-70
2022/06/27 01:22:56;;;;;;;6.10;3.65;;;;;;;20.61;88.71;97888.31;5091728;28;20548;-69
2022/06/27 01:25:25;;;;;;;11.70;4.60;;;;;;;20.50;88.73;97894.81;5091085;28;20032;-70
2022/06/27 01:27:51;;;;;;;6.10;3.50;;;;;;;20.43;90.30;97889.09;5091568;28;20178;-70
2022/06/27 01:30:17;;;;;;;7.32;3.70;;;;;;;20.44;90.56;97894.28;5091016;28;20058;-70
2022/06/27 01:32:42;;;;;;;4.65;3.45;;;;;;;20.44;90.21;97899.84;5092189;28;20055;-69
2022/06/27 01:35:08;;;;;;;8.30;3.30;;;;;;;20.32;90.92;97890.81;5091783;28;20073;-70
2022/06/27 01:37:34;;;;;;;16.88;3.88;;;;;;;20.23;91.17;97889.00;5092096;28;20074;-69
2022/06/27 01:40:00;;;;;;;5.53;3.13;;;;;;;20.47;90.18;97890.78;5091952;28;20031;-69
2022/06/27 01:42:26;;;;;;;5.25;3.17;;;;;;;20.58;90.20;97891.03;5091935;28;20039;-69
2022/06/27 01:44:52;;;;;;;6.75;3.53;;;;;;;20.50;91.25;97898.41;5091914;28;20035;-69
2022/06/27 01:47:17;;;;;;;9.88;5.03;;;;;;;20.50;91.61;97892.03;5091928;28;20023;-69
2022/06/27 01:49:43;;;;;;;7.88;4.10;;;;;;;20.40;93.03;97898.13;5091852;28;20476;-69
2022/06/27 01:52:14;;;;;;;7.28;4.13;;;;;;;20.30;94.02;97893.94;5091906;28;20024;-69
2022/06/27 01:54:40;;;;;;;9.23;3.70;;;;;;;20.21;93.37;97893.28;5091829;28;20032;-69
2022/06/27 01:57:07;;;;;;;8.98;4.32;;;;;;;20.07;94.51;97898.50;5091720;28;20024;-70
2022/06/27 01:59:33;;;;;;;7.63;4.18;;;;;;;20.04;94.62;97900.03;5091732;28;20070;-69
2022/06/27 02:01:59;;;;;;;9.52;3.75;;;;;;;20.07;95.04;97906.84;5092100;28;20161;-68
2022/06/27 02:04:27;;;;;;;6.82;3.88;;;;;;;20.17;94.58;97906.31;5090539;28;20034;-69
2022/06/27 02:06:54;;;;;;;7.88;4.00;;;;;;;20.11;94.26;97905.75;5091670;28;20107;-69
2022/06/27 02:09:20;;;;;;;5.32;3.47;;;;;;;20.02;94.08;97899.56;5091389;28;20471;-69
2022/06/27 02:11:49;;;;;;;6.00;3.17;;;;;;;19.84;95.52;97909.44;5091802;28;20108;-69
2022/06/27 02:14:15;;;;;;;5.85;3.33;;;;;;;19.61;98.44;97897.28;5091447;28;20040;-70
2022/06/27 02:16:41;;;;;;;4.13;2.92;;;;;;;19.47;100.00;97899.69;5091370;28;20031;-69
2022/06/27 02:19:07;;;;;;;4.60;3.22;;;;;;;19.46;100.00;97898.06;5091303;28;20062;-71
2022/06/27 02:21:33;;;;;;;6.38;3.38;;;;;;;19.43;100.00;97904.34;5091373;28;20089;-69
2022/06/27 02:23:59;;;;;;;5.18;3.22;;;;;;;19.45;100.00;97910.34;5090620;28;20445;-69
2022/06/27 02:26:27;;;;;;;3.67;2.90;;;;;;;19.45;100.00;97910.34;5091163;28;20035;-69
2022/06/27 02:28:53;;;;;;;3.83;2.83;;;;;;;19.42;100.00;97908.28;5091373;28;20248;-70
2022/06/27 02:31:19;;;;;;;5.85;3.30;;;;;;;19.33;100.00;97913.16;5091575;28;20073;-69
2022/06/27 02:33:46;;;;;;;4.40;3.50;;;;;;;19.35;100.00;97921.91;5091344;28;20036;-69
2022/06/27 02:36:18;;;;;;;4.80;3.30;;;;;;;19.27;100.00;97923.66;5091146;28;20469;-70
2022/06/27 02:38:45;;;;;;;6.28;3.55;;;;;;;19.24;100.00;97919.66;5091099;28;20401;-69
2022/06/27 02:41:14;;;;;;;8.27;3.03;;;;;;;19.23;100.00;97928.34;5090925;28;20851;-70
2022/06/27 02:43:44;;;;;;;5.72;3.30;;;;;;;19.11;100.00;97920.84;5090794;28;20563;-70
2022/06/27 02:46:10;;;;;;;7.03;3.67;;;;;;;19.05;100.00;97915.88;5090648;28;20032;-70
2022/06/27 02:48:37;;;;;;;6.88;4.05;;;;;;;18.99;100.00;97931.16;5090706;28;20110;-70
2022/06/27 02:51:13;;;;;;;6.65;3.65;;;;;;;19.08;100.00;97932.63;5090745;28;20028;-70
2022/06/27 02:53:49;;;;;;;11.15;3.45;;;;;;;19.05;100.00;97938.88;5090833;28;20038;-70
2022/06/27 02:56:23;;;;;;;7.15;3.33;;;;;;;19.05;100.00;97938.88;5090797;28;20032;-70
2022/06/27 02:58:58;;;;;;;4.68;3.45;;;;;;;19.04;100.00;97937.28;5091039;28;20039;-69
2022/06/27 03:01:26;;;;;;;5.30;3.80;;;;;;;19.07;100.00;97946.88;5091402;28;20035;-70
2022/06/27 03:03:53;;;;;;;7.30;3.47;;;;;;;19.10;100.00;97940.63;5093414;28;20031;-70
2022/06/27 03:06:19;;;;;;;4.55;3.50;;;;;;;19.02;100.00;97947.91;5094043;28;20070;-70
2022/06/27 03:08:46;;;;;;;4.93;3.30;;;;;;;18.93;100.00;97952.78;5090982;28;20024;-69
2022/06/27 03:11:15;;;;;;;4.85;3.28;;;;;;;18.90;100.00;97958.22;5090620;28;20079;-70
2022/06/27 03:13:40;;;;;;;9.52;5.00;;;;;;;18.91;100.00;97948.75;5090512;28;20067;-70
2022/06/27 03:16:08;;;;;;;5.80;3.75;;;;;;;18.92;100.00;97951.16;5090616;28;20074;-70
2022/06/27 03:18:33;;;;;;;8.63;3.78;;;;;;;18.93;100.00;97952.78;5090532;28;20047;-69
2022/06/27 03:20:59;;;;;;;5.95;4.07;;;;;;;18.94;100.00;97962.72;5090308;28;20507;-70
2022/06/27 03:23:24;;;;;;;7.80;3.63;;;;;;;19.03;100.00;97974.50;5090362;28;20024;-70
2022/06/27 03:25:50;;;;;;;6.25;3.40;;;;;;;19.07;100.00;97958.78;5090389;28;20020;-69
2022/06/27 03:28:16;;;;;;;5.38;3.85;;;;;;;19.08;100.00;97952.06;5090574;28;20031;-70
2022/06/27 03:30:41;;;;;;;6.82;3.63;;;;;;;19.16;100.00;97956.66;5090715;28;20064;-69
2022/06/27 03:33:07;;;;;;;6.00;3.58;;;;;;;19.32;100.00;97951.19;5104142;28;20360;-69
2022/06/27 03:35:32;;;;;;;6.90;4.40;;;;;;;19.53;100.00;97956.56;5113190;28;20085;-69
2022/06/27 03:37:58;;;;;;;5.30;3.38;;;;;;;19.73;100.00;97956.31;5114760;28;20073;-69
2022/06/27 03:40:23;;;;;;;7.95;4.10;;;;;;;20.07;96.61;97963.22;5113352;28;20019;-67
2022/06/27 03:42:48;;;;;;;9.48;4.20;;;;;;;20.26;94.65;97965.31;5114941;28;20032;-68
2022/06/27 03:45:14;;;;;;;9.85;3.85;;;;;;;20.40;93.18;97965.66;5114812;28;20037;-69
2022/06/27 03:47:53;;;;;;;6.07;3.88;;;;;;;20.71;90.65;97970.38;5114684;28;20430;-69
2022/06/27 03:50:20;;;;;;;6.63;3.58;;;;;;;21.03;87.47;97966.34;5114713;27;20427;-68
2022/06/27 03:52:46;;;;;;;4.85;3.35;;;;;;;21.21;85.38;97962.00;5114375;28;20424;-67
2022/06/27 03:55:12;;;;;;;6.68;3.78;;;;;;;21.44;83.72;97964.88;5114456;27;20097;-69
2022/06/27 03:57:45;;;;;;;5.90;3.92;;;;;;;21.91;80.69;97958.28;5114560;28;20034;-69
2022/06/27 04:00:11;;;;;;;7.43;4.03;;;;;;;22.06;79.08;97952.59;5114396;28;20138;-68
2022/06/27 04:02:36;;;;;;;6.10;4.05;;;;;;;22.42;76.73;97957.63;5114506;28;20123;-68
2022/06/27 04:05:03;;;;;;;4.93;3.63;;;;;;;22.79;74.95;97959.81;5114400;28;20090;-68
2022/06/27 04:07:29;;;;;;;4.75;3.38;;;;;;;22.80;73.90;97958.66;5114159;28;20028;-69
2022/06/27 04:09:55;;;;;;;7.90;3.45;;;;;;;22.82;73.90;97964.66;5097719;28;20094;-68
2022/06/27 04:12:20;;;;;;;7.63;3.72;;;;;;;22.43;75.67;97956.44;5079785;28;20044;-67
2022/06/27 04:14:46;;;;;;;5.68;3.83;;;;;;;22.88;74.03;97954.78;5073308;28;20025;-69
2022/06/27 04:17:11;;;;;;;5.65;4.28;;;;;;;23.27;71.89;97961.72;5093173;28;20027;-68
2022/06/27 04:19:37;;;;;;;8.68;3.95;;;;;;;22.88;73.93;97961.16;5093460;28;20058;-68
2022/06/27 04:22:03;;;;;;;8.48;3.85;;;;;;;22.26;76.45;97956.94;5093222;28;20043;-69
2022/06/27 04:24:28;;;;;;;6.93;4.32;;;;;;;22.16;78.28;97965.91;5093308;28;20024;-68
2022/06/27 04:26:53;;;;;;;8.95;4.65;;;;;;;22.31;77.54;97953.84;5093321;28;20044;-69
2022/06/27 04:29:19;;;;;;;8.82;4.18;;;;;;;22.21;77.75;97954.44;5073772;28;20080;-69
2022/06/27 04:31:44;;;;;;;9.57;4.25;;;;;;;21.87;79.47;97961.78;5073480;28;20093;-69
2022/06/27 04:34:12;;;;;;;9.35;4.50;;;;;;;21.47;82.95;97963.34;5072972;28;20044;-68
2022/06/27 04:36:38;;;;;;;7.65;4.25;;;;;;;21.52;82.78;97968.63;5072703;28;20025;-69
2022/06/27 04:39:06;;;;;;;6.55;4.60;;;;;;;21.64;82.02;97965.69;5072751;28;20070;-69
2022/06/27 04:41:32;;;;;;;5.80;4.35;;;;;;;21.64;82.43;97962.91;5084467;28;20035;-68
2022/06/27 04:43:57;;;;;;;6.68;4.65;;;;;;;21.78;82.49;97965.97;5093003;28;20031;-69
2022/06/27 04:46:23;;;;;;;8.65;4.07;;;;;;;21.96;81.62;97969.13;5092491;28;20032;-69
2022/06/27 04:48:48;;;;;;;8.23;4.38;;;;;;;21.98;80.69;97962.00;5092862;28;20028;-70
2022/06/27 04:51:14;;;;;;;9.18;4.38;;;;;;;21.97;80.88;97959.59;5092867;28;20419;-69
2022/06/27 04:53:40;;;;;;;6.82;4.15;;;;;;;21.97;80.73;97962.38;5092934;28;20031;-69
2022/06/27 04:56:08;;;;;;;8.30;4.38;;;;;;;21.94;80.81;97954.75;5093006;28;20484;-69
2022/06/27 04:58:34;;;;;;;8.25;4.90;;;;;;;21.96;80.34;97961.56;5092722;28;20498;-72
2022/06/27 05:01:00;;;;;;;7.95;5.07;;;;;;;22.20;79.68;97954.84;5092859;28;20036;-67
2022/06/27 05:03:26;;;;;;;7.80;4.28;;;;;;;22.67;76.66;97960.03;5093872;28;20166;-68
2022/06/27 05:05:52;;;;;;;9.52;5.20;;;;;;;22.79;76.18;97952.25;5097281;28;20038;-67
2022/06/27 05:08:17;;;;;;;7.75;4.50;;;;;;;23.13;74.58;97963.50;5096476;28;20529;-69
2022/06/27 05:10:43;;;;;;;8.80;4.35;;;;;;;23.36;73.30;97959.47;5094505;28;20035;-67
2022/06/27 05:13:09;;;;;;;8.27;4.43;;;;;;;23.66;71.43;97970.63;5092528;28;20055;-68
2022/06/27 05:15:36;;;;;;;8.45;4.07;;;;;;;23.96;69.56;97959.41;5092777;28;20415;-68
2022/06/27 05:18:03;;;;;;;5.78;4.25;;;;;;;24.07;69.27;97953.91;5093472;28;20028;-67
2022/06/27 05:20:30;;;;;;;9.82;5.18;;;;;;;24.37;68.08;97958.22;5091906;28;20756;-67
2022/06/27 05:22:56;;;;;;;6.22;4.65;;;;;;;24.42;67.29;97960.69;5092204;28;20074;-69
2022/06/27 05:25:22;;;;;;;9.18;4.22;;;;;;;24.49;67.43;97966.34;5092187;28;20119;-67
2022/06/27 05:27:48;;;;;;;7.50;4.47;;;;;;;24.33;67.00;97968.59;5091938;28;20103;-71
2022/06/27 05:30:15;;;;;;;7.22;4.63;;;;;;;24.56;67.08;97962.78;5092066;28;20024;-67
2022/06/27 05:32:41;;;;;;;7.53;4.40;;;;;;;24.60;66.57;97957.22;5092156;28;20039;-68
2022/06/27 05:35:07;;;;;;;8.13;4.10;;;;;;;24.71;66.14;97969.31;5091176;28;20028;-68
2022/06/27 05:37:35;;;;;;;8.73;4.75;;;;;;;24.60;65.56;97965.59;5091419;28;20882;-68
2022/06/27 05:40:00;;;;;;;7.40;3.85;;;;;;;24.82;64.80;97961.81;5090929;28;20377;-67
2022/06/27 05:42:26;;;;;;;7.03;4.30;;;;;;;25.01;63.90;97969.94;5090399;28;20024;-68
2022/06/27 05:44:51;;;;;;;5.63;4.10;;;;;;;24.85;63.88;97969.44;5090128;28;20058;-68
2022/06/27 05:47:16;;;;;;;10.50;4.43;;;;;;;24.81;64.01;97976.97;5090511;28;20031;-68
2022/06/27 05:49:43;;;;;;;5.47;3.97;;;;;;;25.06;64.52;97985.59;5090688;28;20528;-68
2022/06/27 05:52:09;;;;;;;6.88;3.60;;;;;;;25.15;63.69;97981.25;5090574;28;20031;-68
2022/06/27 05:54:35;;;;;;;10.95;4.20;;;;;;;25.35;63.40;97992.94;5090240;28;20024;-69
2022/06/27 05:57:01;;;;;;;5.30;3.58;;;;;;;25.46;62.37;97986.22;5090135;28;20044;-67
2022/06/27 05:59:28;;;;;;;5.72;3.55;;;;;;;25.38;63.15;97995.78;5090923;28;20024;-67
2022/06/27 06:01:54;;;;;;;9.10;4.28;;;;;;;25.69;61.56;97994.34;5091113;28;20071;-68
2022/06/27 06:04:20;;;;;;;7.38;3.50;;;;;;;25.33;62.94;97984.94;5090939;28;20054;-68
2022/06/27 06:06:46;;;;;;;7.50;4.13;;;;;;;25.55;62.58;97992.31;5090707;28;20487;-67
2022/06/27 06:09:13;;;;;;;6.57;4.28;;;;;;;25.78;61.76;97994.00;5090854;28;20028;-67
2022/06/27 06:11:39;;;;;;;9.80;4.32;;;;;;;25.94;61.67;98000.03;5086593;28;20028;-67
2022/06/27 06:14:05;;;;;;;6.47;3.95;;;;;;;26.34;60.34;98001.81;5087837;28;20399;-68
2022/06/27 06:16:31;;;;;;;7.03;3.42;;;;;;;26.63;58.91;98009.03;5086499;28;20510;-68
2022/06/27 06:18:57;;;;;;;4.95;3.78;;;;;;;27.00;56.56;98011.50;5089035;28;20039;-70
2022/06/27 06:21:23;;;;;;;10.68;4.20;;;;;;;27.24;55.37;98001.41;5089554;28;20020;-67
2022/06/27 06:23:51;;;;;;;6.28;4.15;;;;;;;26.08;58.77;98005.72;5088666;28;20054;-69
2022/06/27 06:26:19;;;;;;;7.55;3.65;;;;;;;25.91;60.32;98000.84;5089472;28;20024;-67
2022/06/27 06:28:46;;;;;;;7.05;3.60;;;;;;;26.26;59.34;98012.19;5090294;28;20028;-67
2022/06/27 06:31:15;;;;;;;11.30;3.95;;;;;;;26.26;59.17;98014.19;5089682;28;20020;-67
2022/06/27 06:33:41;;;;;;;7.32;3.95;;;;;;;27.76;53.78;98013.75;5088774;28;20069;-69
2022/06/27 06:36:07;;;;;;;5.68;3.47;;;;;;;27.81;53.08;98016.97;5089265;28;20058;-67
2022/06/27 06:38:33;;;;;;;6.18;3.28;;;;;;;27.91;53.02;98015.31;5084123;28;20119;-67
2022/06/27 06:40:58;;;;;;;4.95;3.55;;;;;;;27.14;55.30;98003.03;5089244;28;20118;-71
2022/06/27 06:43:24;;;;;;;6.20;4.22;;;;;;;26.65;57.03;98012.25;5089251;28;20529;-69
2022/06/27 06:45:49;;;;;;;9.13;3.60;;;;;;;26.46;57.56;98013.44;5088978;28;20017;-72
2022/06/27 06:48:17;;;;;;;11.05;3.63;;;;;;;26.71;58.45;98005.06;5089221;28;20061;-68
2022/06/27 06:50:43;;;;;;;6.82;3.92;;;;;;;26.47;57.50;98012.22;5089242;28;20033;-70
2022/06/27 06:53:09;;;;;;;12.20;4.45;;;;;;;25.98;58.91;98001.69;5089134;28;20016;-69
2022/06/27 06:55:34;;;;;;;7.47;4.57;;;;;;;25.52;60.17;98006.28;5089296;28;20028;-64
2022/06/27 06:57:59;;;;;;;7.63;3.92;;;;;;;25.84;59.77;98012.06;5089076;28;20020;-72
2022/06/27 07:00:25;;;;;;;8.82;4.22;;;;;;;26.11;58.22;98016.13;5088799;28;20139;-73
2022/06/27 07:02:52;;;;;;;5.70;3.33;;;;;;;26.02;58.15;98013.72;5090865;28;20043;-73
2022/06/27 07:05:17;;;;;;;10.70;3.78;;;;;;;26.34;56.69;98007.41;5090715;28;20039;-74
2022/06/27 07:07:43;;;;;;;12.77;4.80;;;;;;;26.55;55.65;98008.25;5091702;28;20028;-75
2022/06/27 07:10:13;;;;;;;10.93;4.57;;;;;;;26.61;55.34;98005.84;5091188;28;20032;-80
2022/06/27 07:12:40;;;;;;;9.05;4.95;;;;;;;27.36;54.25;98006.59;5090349;28;20040;-78
2022/06/27 07:15:09;;;;;;;10.32;5.18;;;;;;;27.33;52.56;98022.28;5089655;28;20078;-72
2022/06/27 07:17:46;;;;;;;8.43;4.65;;;;;;;27.46;52.06;98006.63;5088949;28;20028;-72
2022/06/27 07:20:13;;;;;;;13.20;4.80;;;;;;;27.57;51.35;98015.00;5089189;28;20012;-70
2022/06/27 07:22:40;;;;;;;7.68;4.40;;;;;;;27.99;50.72;98019.69;5089102;28;20024;-72
2022/06/27 07:25:06;;;;;;;6.82;3.72;;;;;;;28.32;49.92;98023.97;5089988;28;20095;-72
2022/06/27 07:27:34;;;;;;;15.02;3.92;;;;;;;28.79;49.64;98014.81;5094360;28;20024;-75
2022/06/27 07:30:00;;;;;;;15.35;4.53;;;;;;;29.13;47.59;98014.94;5097967;28;20070;-73
2022/06/27 07:32:27;;;;;;;7.75;4.10;;;;;;;29.16;49.54;98014.09;5090474;28;20050;-73
2022/06/27 07:34:54;;;;;;;8.18;3.92;;;;;;;29.35;49.34;98007.09;5089796;28;20052;-74
2022/06/27 07:37:20;;;;;;;6.72;4.10;;;;;;;29.35;47.54;98007.91;5090722;28;20028;-74
2022/06/27 07:39:45;;;;;;;7.03;3.83;;;;;;;29.05;48.34;98000.09;5091652;28;20085;-75
2022/06/27 07:42:11;;;;;;;5.00;3.80;;;;;;;29.19;52.30;98004.81;5091250;28;20480;-77
2022/06/27 07:44:36;;;;;;;9.70;4.22;;;;;;;29.18;50.71;98008.84;5089466;28;20047;-76
2022/06/27 07:47:03;;;;;;;6.70;3.90;;;;;;;29.26;49.07;98010.38;5089949;28;20043;-76
2022/06/27 07:49:30;;;;;;;8.05;3.95;;;;;;;28.68;49.67;98003.63;5089543;28;20077;-78
2022/06/27 07:51:56;;;;;;;8.02;3.78;;;;;;;28.61;54.36;97992.38;5089600;28;20040;-78
2022/06/27 07:54:22;;;;;;;11.27;4.05;;;;;;;28.48;51.35;98008.16;5090034;28;20031;-75
2022/06/27 07:56:50;;;;;;;9.70;4.57;;;;;;;28.80;50.41;98001.53;5092588;28;20543;-74
2022/06/27 07:59:17;;;;;;;10.52;4.32;;;;;;;28.80;47.57;97993.06;5087251;28;20434;-75
2022/06/27 08:01:43;;;;;;;7.28;4.65;;;;;;;29.30;48.86;98005.53;5104654;28;21663;-75
2022/06/27 08:04:11;;;;;;;8.48;3.47;;;;;;;29.25;46.27;98006.00;5100652;28;20107;-75
2022/06/27 08:06:36;;;;;;;6.72;3.67;;;;;;;29.70;47.62;98001.84;5096212;28;20082;-75
2022/06/27 08:09:05;;;;;;;8.63;2.83;;;;;;;29.18;44.50;98011.66;5087717;28;20032;-77
2022/06/27 08:11:36;;;;;;;8.55;3.00;;;;;;;29.32;45.73;98008.72;5085490;28;20020;-76
2022/06/27 08:14:05;;;;;;;7.82;3.47;;;;;;;29.53;43.85;97990.78;5086121;28;20129;-74
2022/06/27 08:16:32;;;;;;;5.57;2.75;;;;;;;29.64;43.42;97999.91;5089416;28;20097;-74
2022/06/27 08:19:00;;;;;;;8.40;2.80;;;;;;;29.03;44.60;97996.09;5085626;28;20396;-74
2022/06/27 08:21:27;;;;;;;5.65;2.88;;;;;;;29.38;46.65;97995.78;5086860;28;20817;-75
2022/06/27 08:24:04;;;;;;;4.65;2.72;;;;;;;29.45;46.23;97989.25;5089701;28;20040;-74
2022/06/27 08:26:31;;;;;;;5.50;2.83;;;;;;;30.21;45.56;97994.38;5087992;28;20024;-74
2022/06/27 08:29:02;;;;;;;6.78;2.97;;;;;;;30.49;45.35;97993.19;5090638;28;20054;-74
2022/06/27 08:31:30;;;;;;;10.18;2.90;;;;;;;30.67;41.98;97990.88;5093674;28;20122;-76
2022/06/27 08:34:00;;;;;;;7.72;3.30;;;;;;;30.67;44.27;97986.03;5089035;28;20035;-75
2022/06/27 08:36:33;;;;;;;7.45;2.88;;;;;;;30.54;45.74;97987.84;5090290;28;20077;-78
2022/06/27 08:38:59;;;;;;;6.60;3.28;;;;;;;30.67;41.53;97971.91;5089553;28;20380;-77
2022/06/27 08:41:26;;;;;;;6.25;3.38;;;;;;;30.87;45.67;97972.00;5088307;28;20024;-75
2022/06/27 08:43:58;;;;;;;7.63;3.17;;;;;;;31.20;45.74;97970.25;5088639;28;20055;-73
2022/06/27 08:46:24;;;;;;;4.97;3.10;;;;;;;31.45;40.82;97970.53;5089322;28;20043;-73
2022/06/27 08:48:50;;;;;;;6.32;3.28;;;;;;;31.58;41.36;97970.72;5089447;28;20036;-74
2022/06/27 08:51:17;;;;;;;6.88;3.17;;;;;;;31.59;43.84;97958.97;5088724;28;20058;-75
2022/06/27 08:53:44;;;;;;;9.40;3.00;;;;;;;30.71;40.92;97957.72;5086339;28;20032;-77
2022/06/27 08:56:12;;;;;;;6.70;3.00;;;;;;;31.17;41.10;97969.03;5087996;28;20023;-75
2022/06/27 08:58:39;;;;;;;6.60;3.15;;;;;;;31.77;44.37;97965.06;5087911;28;20502;-77
2022/06/27 09:01:06;;;;;;;5.22;3.25;;;;;;;31.88;43.53;97959.19;5089711;28;20103;-74
2022/06/27 09:03:32;;;;;;;11.00;2.88;;;;;;;31.89;43.68;97951.50;5088400;28;20032;-77
2022/06/27 09:06:06;;;;;;;9.45;3.03;;;;;;;32.09;41.36;97957.94;5090885;28;20078;-79
2022/06/27 09:08:54;;;;;;;5.15;2.85;;;;;;;32.34;40.24;97953.31;5091120;28;20493;-76
2022/06/27 09:11:27;;;;;;;6.63;3.33;;;;;;;32.04;38.45;97947.97;5091039;28;20078;-77
2022/06/27 09:13:54;;;;;;;9.00;2.90;;;;;;;31.96;40.79;97945.66;5087427;28;20067;-78
2022/06/27 09:16:20;;;;;;;6.45;3.55;;;;;;;31.92;39.15;97944.97;5084762;28;20036;-73
2022/06/27 09:18:45;;;;;;;9.50;3.20;;;;;;;31.63;39.34;97951.22;5088292;28;20039;-73
2022/06/27 09:21:13;;;;;;;4.40;2.90;;;;;;;31.15;40.65;97950.94;5082014;28;20502;-74
2022/06/27 09:23:58;;;;;;;7.72;3.38;;;;;;;31.29;42.67;97950.69;5088653;28;20028;-74
2022/06/27 09:26:25;;;;;;;6.60;3.00;;;;;;;31.08;41.20;97951.06;5087540;28;20689;-73
2022/06/27 09:28:53;;;;;;;7.22;3.35;;;;;;;31.56;42.16;97945.72;5090838;28;20387;-74
2022/06/27 09:31:30;;;;;;;8.90;3.60;;;;;;;31.53;40.95;97946.59;5089816;28;20036;-75
2022/06/27 09:34:05;;;;;;;6.60;3.17;;;;;;;31.10;42.03;97945.78;5091737;28;20020;-76
2022/06/27 09:36:32;;;;;;;4.53;3.30;;;;;;;31.80;43.35;97943.59;5097131;28;20012;-74
2022/06/27 09:39:01;;;;;;;5.50;2.72;;;;;;;31.58;43.32;97936.78;5101057;28;20032;-77
2022/06/27 09:41:29;;;;;;;6.72;3.25;;;;;;;31.79;43.45;97931.50;5088978;28;20103;-81
2022/06/27 09:44:00;;;;;;;5.88;3.22;;;;;;;32.30;42.17;97932.78;5091938;28;20030;-79
2022/06/27 09:46:31;;;;;;;6.32;3.25;;;;;;;32.35;40.08;97928.63;5080678;28;20107;-80
2022/06/27 09:48:58;;;;;;;10.00;3.80;;;;;;;32.00;42.24;97918.09;5085744;28;20020;-72
2022/06/27 09:51:25;;;;;;;7.22;3.83;;;;;;;32.35;40.39;97918.09;5091976;28;20562;-72
2022/06/27 09:53:50;;;;;;;7.47;3.85;;;;;;;32.70;41.80;97913.63;5090418;28;20016;-78
2022/06/27 09:56:20;;;;;;;7.07;3.38;;;;;;;32.10;39.19;97928.41;5090491;28;20012;-75
2022/06/27 09:58:46;;;;;;;9.85;3.03;;;;;;;32.63;40.02;97918.66;5091945;28;20038;-76
2022/06/27 10:01:11;;;;;;;7.70;3.63;;;;;;;32.79;38.39;97908.13;5090952;28;20035;-74
2022/06/27 10:03:38;;;;;;;8.38;3.55;;;;;;;33.21;38.51;97897.69;5091800;28;20122;-73
2022/06/27 10:06:05;;;;;;;5.40;3.03;;;;;;;33.69;38.97;97913.78;5090940;28;20077;-78
2022/06/27 10:08:33;;;;;;;5.68;3.03;;;;;;;33.45;38.36;97903.91;5090290;28;20047;-77
2022/06/27 10:11:01;;;;;;;4.97;2.90;;;;;;;33.52;38.49;97902.91;5091284;28;20039;-77
2022/06/27 10:13:31;;;;;;;6.82;3.13;;;;;;;33.81;36.38;97892.31;5091137;28;20127;-75
2022/06/27 10:15:58;;;;;;;7.68;3.47;;;;;;;34.28;36.00;97901.81;5093158;28;20043;-83
2022/06/27 10:18:24;;;;;;;18.48;3.35;;;;;;;34.09;35.31;97902.00;5095534;28;20038;-85
2022/06/27 10:20:51;;;;;;;6.82;3.45;;;;;;;34.30;36.26;97905.00;5112399;28;20091;-79
2022/06/27 10:23:28;;;;;;;5.05;2.70;;;;;;;34.55;35.36;97912.75;5114294;28;20023;-79
2022/06/27 10:25:56;;;;;;;6.50;3.50;;;;;;;34.76;35.10;97906.34;5131626;27;20383;-81
2022/06/27 10:28:22;;;;;;;8.90;3.53;;;;;;;34.97;33.62;97899.94;5115194;28;20042;-81
2022/06/27 10:30:49;;;;;;;12.00;3.17;;;;;;;35.03;35.60;97894.44;5115683;28;20019;-79
2022/06/27 10:33:17;;;;;;;6.57;3.10;;;;;;;34.83;34.83;97900.44;5115041;28;20038;-81
2022/06/27 10:36:11;;;;;;;10.07;3.00;;;;;;;34.66;35.79;97901.81;5109177;28;20024;-79
2022/06/27 10:38:40;;;;;;;8.13;3.30;;;;;;;34.68;35.56;97887.94;5095159;28;20035;-81
2022/06/27 10:41:06;;;;;;;9.13;3.28;;;;;;;34.62;35.49;97877.59;5091707;28;20382;-82
2022/06/27 10:43:41;;;;;;;7.32;3.30;;;;;;;34.95;35.44;97885.38;5094404;28;20035;-84
2022/06/27 10:46:09;;;;;;;;;;;;;;;35.21;33.63;97885.31;5093986;28;20020;-82
2022/06/27 10:48:39;;;;;;;11.00;3.20;;;;;;;35.45;33.37;97873.00;5093464;28;19923;-85
2022/06/27 10:51:34;;;;;;;10.07;3.50;;;;;;;35.54;32.46;97868.63;5093658;28;20040;-84
2022/06/27 10:54:05;;;;;;;8.50;3.50;;;;;;;34.70;34.04;97870.44;5091006;28;20441;-80
2022/06/27 10:56:32;;;;;;;10.05;3.08;;;;;;;34.35;33.76;97866.72;5093948;28;20031;-80
2022/06/27 10:59:14;;;;;;;9.65;3.53;;;;;;;34.45;33.75;97868.41;5094850;28;20031;-79
2022/06/27 11:01:41;;;;;;;6.68;3.47;;;;;;;34.37;34.87;97856.47;5096937;28;20111;-78
2022/06/27 11:04:06;;;;;;;8.27;3.55;;;;;;;34.64;33.67;97841.00;5095675;28;20023;-85
2022/06/27 11:06:32;;;;;;;11.77;3.60;;;;;;;34.86;33.76;97848.31;5098595;28;20043;-81
2022/06/27 11:08:57;;;;;;;8.18;3.28;;;;;;;34.57;32.96;97852.56;5094301;28;20020;-81
2022/06/27 11:11:27;;;;;;;13.30;3.70;;;;;;;34.48;32.16;97855.31;5095375;28;20384;-81
2022/06/27 11:13:58;;;;;;;7.78;3.78;;;;;;;34.32;33.89;97831.47;5103031;28;20071;-80
2022/06/27 11:16:32;;;;;;;11.10;3.17;;;;;;;34.61;32.83;97848.41;5098595;28;20072;-81
2022/06/27 11:19:00;;;;;;;10.95;3.30;;;;;;;35.05;31.41;97842.78;5096650;28;20074;-80
2022/06/27 11:21:43;;;;;;;8.15;3.35;;;;;;;35.23;30.79;97828.72;5094566;28;20488;-83
2022/06/27 11:24:11;;;;;;;8.82;2.88;;;;;;;35.62;31.35;97835.84;5094818;28;20032;-78
2022/06/27 11:26:45;;;;;;;10.20;3.63;;;;;;;35.74;31.11;97840.63;5092065;28;20056;-79
2022/06/27 11:32:06;;;;;;;12.35;3.55;;;;;;;36.04;29.75;97833.31;5072730;28;20055;-81
2022/06/27 11:34:37;;;;;;;11.52;3.70;;;;;;;35.57;30.19;97825.00;5071746;28;20056;-80